Bookmark and Share
Track history (hours):
 

Taiheimaru

Last reported at 2014-Apr-17 09:30 UTC. Time now 2014-Apr-17 09:40 UTC.
Position N 34°41' E 135°12'.

Length 78 m.

Type: Cargo ship. MMSI: 431400082.

NotesDate/timePositionNaut miles runAvg speedWind from/ knotsBaromVisibWave heightAir tempDewpointWater temp
2014-Apr-17 09:30N 34°41' E 135°12'0 0.0
2014-Apr-17 08:30N 34°41' E 135°12'0 0.0
2014-Apr-17 07:18N 34°41' E 135°12'0 0.0
2014-Apr-17 06:30N 34°41' E 135°12'0 0.0
2014-Apr-17 05:18N 34°41' E 135°12'0 0.0
2014-Apr-17 04:30N 34°41' E 135°12'0 0.0
2014-Apr-17 03:31N 34°41' E 135°12'0 0.0
2014-Apr-17 02:30N 34°41' E 135°12'0 0.0
2014-Apr-17 01:17N 34°41' E 135°12'0 0.0
2014-Apr-17 00:30N 34°41' E 135°12'0 0.0
2014-Apr-16 23:33N 34°41' E 135°12'0 0.0
2014-Apr-16 22:25N 34°41' E 135°12'0 0.0
2014-Apr-16 21:33N 34°41' E 135°12'0 0.0
2014-Apr-16 20:33N 34°41' E 135°12'0 0.0
2014-Apr-16 19:33N 34°41' E 135°12'0 0.0
2014-Apr-16 18:33N 34°41' E 135°12'0 0.0
2014-Apr-16 17:32N 34°41' E 135°12'0 0.0
2014-Apr-16 16:33N 34°41' E 135°12'0 0.0
2014-Apr-16 15:32N 34°41' E 135°12'0 0.0
2014-Apr-16 14:29N 34°41' E 135°12'0 0.0
2014-Apr-16 13:32N 34°41' E 135°12'0 0.0
2014-Apr-16 12:33N 34°41' E 135°12'0 0.0
2014-Apr-16 11:29N 34°41' E 135°12'0 0.0
2014-Apr-16 10:25N 34°41' E 135°12'0 0.0
2014-Apr-16 09:33N 34°41' E 135°12'0 0.0
2014-Apr-16 08:30N 34°41' E 135°12'0 0.0
2014-Apr-16 07:31N 34°41' E 135°12'0 0.0
2014-Apr-16 06:33N 34°41' E 135°12'0 0.0
2014-Apr-16 05:22N 34°41' E 135°12'0 0.0
2014-Apr-16 04:28N 34°41' E 135°12'0 0.0
2014-Apr-16 03:28N 34°41' E 135°12'0 0.0
2014-Apr-16 02:33N 34°41' E 135°12'2 2.0
2014-Apr-16 01:24N 34°39' E 135°14'0 0.0
2014-Apr-16 00:30N 34°39' E 135°14'1 1.2
2014-Apr-15 23:33N 34°38' E 135°15'0 0.0
2014-Apr-15 22:30N 34°38' E 135°15'0 0.0
2014-Apr-15 21:33N 34°38' E 135°15'0 0.1
2014-Apr-15 20:32N 34°38' E 135°15'1010.1
2014-Apr-15 19:32N 34°36' E 135°03'6 0.2
2014-Apr-14 07:30N 34°37' E 134°56'1010.8
2014-Apr-14 06:33N 34°37' E 135°09'6 5.5
2014-Apr-14 05:33N 34°39' E 135°15'3 0.4
2014-Apr-13 22:30N 34°41' E 135°13'0 0.0
2014-Apr-13 21:28N 34°41' E 135°13'0 0.0
2014-Apr-13 20:27N 34°41' E 135°13'0 0.0
2014-Apr-13 19:29N 34°41' E 135°13'0 0.0
2014-Apr-13 18:27N 34°41' E 135°13'0 0.0
2014-Apr-13 17:25N 34°41' E 135°13'0 0.0
2014-Apr-13 16:28N 34°41' E 135°13'0 0.0
2014-Apr-13 15:33N 34°41' E 135°13'0 0.0
2014-Apr-13 14:30N 34°41' E 135°13'0 0.0
2014-Apr-13 13:30N 34°41' E 135°13'0 0.0
2014-Apr-13 12:31N 34°41' E 135°13'0 0.0
2014-Apr-13 11:29N 34°41' E 135°13'0 0.0
2014-Apr-13 10:29N 34°41' E 135°13'0 0.0
2014-Apr-13 09:26N 34°41' E 135°13'0 0.0
2014-Apr-13 08:30N 34°41' E 135°13'0 0.0
2014-Apr-13 07:34N 34°41' E 135°13'0 0.0
2014-Apr-13 06:21N 34°41' E 135°13'4 4.6
2014-Apr-13 05:32N 34°38' E 135°15'15 0.3
2014-Apr-11 08:11N 34°37' E 134°57'812.3
2014-Apr-11 07:32N 34°36' E 135°07'1211.7
2014-Apr-11 06:29N 34°39' E 135°21'4 0.8
2014-Apr-11 01:32N 34°39' E 135°26'9 8.3
2014-Apr-11 00:23N 34°39' E 135°15'0 0.0
2014-Apr-10 23:21N 34°39' E 135°15'1 1.0
2014-Apr-10 22:30N 34°38' E 135°15'0 0.0
2014-Apr-10 21:24N 34°38' E 135°15'0 0.0
2014-Apr-10 20:30N 34°38' E 135°15'0 0.0
2014-Apr-10 19:27N 34°38' E 135°15'0 0.1
2014-Apr-10 18:29N 34°38' E 135°15'3 3.6
2014-Apr-10 17:33N 34°37' E 135°12'6 0.2
2014-Apr-09 06:09N 34°36' E 135°04'711.4
2014-Apr-09 05:33N 34°37' E 135°12'3 2.6
2014-Apr-09 04:30N 34°40' E 135°14'0 0.0
2014-Apr-09 03:33N 34°40' E 135°14'0 0.0
2014-Apr-09 02:33N 34°40' E 135°14'1 1.1
2014-Apr-09 01:30N 34°38' E 135°15'0 0.0
2014-Apr-09 00:27N 34°38' E 135°15'0 0.0
2014-Apr-08 23:27N 34°38' E 135°15'0 0.0
2014-Apr-08 22:33N 34°38' E 135°15'0 0.0
2014-Apr-08 21:33N 34°38' E 135°15'0 0.0
2014-Apr-08 20:27N 34°38' E 135°15'0 0.0
2014-Apr-08 19:33N 34°38' E 135°15'0 0.0
2014-Apr-08 18:29N 34°38' E 135°15'0 0.0
2014-Apr-08 17:29N 34°38' E 135°15'4 4.8
2014-Apr-08 16:33N 34°36' E 135°10'  

Dump ship's entire track history

sailing weather and tide predictions

Taiheimaru — JM6135 — position and weather